Guadalupe Mtns National Park, TX

7:59 PM MDT on August 21, 2014 (GMT -0600)
Guadalupe Pass | Change Station
CLOSE
Current Station
Airport
Location: Guadalupe Pass,
Elevation: 5453 ft
Nearby Weather Stations

Elev 5453 ft 31.83 °N, 104.81 °W | Updated 8 minutes ago

Overcast
Overcast
74 °F
Feels Like 74 °F
N
10
Wind Variable Wind from WSW

Today
High -- | Low -- °F
--% Chance of Precip.
Yesterday
High -- | Low -- °F
Precip. -- in
6:29 AM 7:37 PM
Waning Crescent, 11% visible
Pressure 29.95 in
Visibility 10.0 miles
Clouds Few 6000 ft
Overcast 12000 ft
Dew Point 57 °F
Humidity 55%
Rainfall 0.00 in
Snow Depth Not available.
UV 0 out of 12
Pollen 7.90 out of 12
Air Quality Not available.
Flu Activity Not available.
METAR KGDP 220151Z AUTO 24009KT 10SM FEW060 OVC120 23/14 A3018 RMK AO2 PK WND 24035/0116 SLP140 T02330139

More Conditions Fewer Conditions

Pressure 29.95 in
Visibility 10.0 miles
Clouds Few 6000 ft
Overcast 12000 ft
Dew Point 57 °F
Humidity 55%
Rainfall 0.00 in
Snow Depth Not available.
UV 0 out of 12
Pollen 7.90 out of 12
Air Quality Not available.
Flu Activity Not available.
METAR KGDP 220151Z AUTO 24009KT 10SM FEW060 OVC120 23/14 A3018 RMK AO2 PK WND 24035/0116 SLP140 T02330139

More Conditions Fewer Conditions

Nowcast | as of 6:45 PM MDT on August 21, 2014

An area of scattered showers and thunderstorms continues to gradually and steadily advance northward around 10 mph with the leading edge at 630 PM on a west to East Line from southern Hidalgo County to southern El Paso County eastward into Hudspeth County. This activity should continue to spread northward into the southern portion of the Borderland during the next couple of hours. Some thunderstorms will be capable of producing local heavy downpours of an inch or more with low area flooding. Small hail...wind gusts to 50 mph...and dangerous cloud to ground lightning is also likely with this activity. At this time Doppler radar is estimating rainfall rates in Hudspeth County around .3 to

to 1.0 inch per hour range.

×

10-Day Weather Forecast

Almanac

Astronomy

Aug. 21, 2014 Rise Set
Actual Time 6:29 AM MDT 7:37 PM MDT
Civil Twilight 6:03 AM MDT 8:02 PM MDT
Nautical Twilight 5:33 AM MDT 8:32 PM MDT
Astronomical Twilight 5:02 AM MDT 9:03 PM MDT
Moon 3:07 AM MDT (8/21) 5:02 PM MDT (8/21)
Length of Visible Light 13h 58m
Length of Day
13h 08m
Tomorrow will be 1m 45s shorter.
Waning Crescent, 11% of the Moon is Illuminated
Today
Waning Crescent
Aug 25
New
Sep 2
First Quarter
Sep 8
Full
Sep 15
Last Quarter

Today's Extremes

State Highs State Lows

Community

WunderPhotos

Upload Photos

1,746,105 photos uploaded!

WunderBlogs® & News

Nearby

Snow Depth

Station Depth Elevation
No new snow has been reported.

Earthquake Activity

City Distance Mag. Time & Date
No recent earthquake activity has been reported nearby.
Minimum magnitude displayed is 2.5.

Coastal Water Temperatures

Place Temperature
No Stations Reporting

Nearby Weather Stations